This is the latest recevied weather packets stored in our database for station/object Aulendorf. If no packets are shown the sender has not sent any weather packets the latest 10 day(s).
| Time | Temp. | Humidity | Pressure | Rain* | Wind** | Luminosity | Snow |
|---|---|---|---|---|---|---|---|
| 1777627930 | 16.11° C | 37% | 1025.5 hPa | 0 mm | - | - | - |
| 1777626132 | 14.44° C | 39% | 1025.5 hPa | 0 mm | - | - | - |
| 1777624331 | 13.33° C | 40% | 1025.6 hPa | 0 mm | - | - | - |
| 1777622532 | 11.67° C | 42% | 1025.4 hPa | 0 mm | - | - | - |
| 1777620733 | 10.56° C | 45% | 1025.5 hPa | 0 mm | - | - | - |
| 1777618930 | 8.89° C | 46% | 1025.4 hPa | 0 mm | - | - | - |
| 1777617131 | 7.78° C | 48% | 1025.3 hPa | 0 mm | - | - | - |
| 1777615333 | 6.67° C | 52% | 1025.2 hPa | 0 mm | - | - | - |
| 1777613531 | 5.56° C | 54% | 1024.9 hPa | 0 mm | - | - | - |
| 1777611731 | 4.44° C | 56% | 1024.6 hPa | 0 mm | - | - | - |
| 1777609931 | 3.89° C | 56% | 1024.4 hPa | 0 mm | - | - | - |
| 1777608131 | 4.44° C | 54% | 1024.3 hPa | 0 mm | - | - | - |
| 1777606332 | 5° C | 49% | 1024.5 hPa | 0 mm | - | - | - |
| 1777604532 | 5.56° C | 48% | 1024.4 hPa | 0 mm | - | - | - |
| 1777602733 | 5.56° C | 47% | 1024.3 hPa | 0 mm | - | - | - |
| 1777600931 | 6.11° C | 45% | 1024.3 hPa | 0 mm | - | - | - |
| 1777599131 | 6.11° C | 45% | 1024.3 hPa | 0 mm | - | - | - |
| 1777597331 | 6.67° C | 43% | 1024.4 hPa | 0 mm | - | - | - |
| 1777595529 | 7.22° C | 41% | 1024.3 hPa | 0 mm | - | - | - |
| 1777593730 | 7.22° C | 40% | 1024.2 hPa | 0 mm | - | - | - |
| 1777591929 | 7.78° C | 39% | 1024.4 hPa | 0 mm | - | - | - |
| 1777590129 | 8.33° C | 37% | 1024.4 hPa | 0 mm | - | - | - |
| 1777588329 | 8.33° C | 37% | 1024.3 hPa | 0 mm | - | - | - |
| 1777586529 | 8.33° C | 37% | 1024.4 hPa | 0 mm | - | - | - |
| 1777584729 | 8.89° C | 36% | 1024.4 hPa | 0 mm | - | - | - |
* Rain since midnight (hover to see other rain measurements)
** Current wind speed in m/s (hover to see current wind gust speed)